Flight Track Log - Related Links

Times and Time Zones

All times are in EDT time to prevent confusion due to time zone crossing. See the N373LD flight status page for this flight to view local times or setup timezone preferences in your user account.

Time Position Orientation Groundspeed Altitude Reporting Facility
EDT Latitude Longitude Course Direction KTS MPH feet Rate Location/Type
Wed 01:29:14 PM 45.4111 -98.5314 291° West 144 166 5,000  Level Minneapolis Center
Wed 01:30:16 PM 45.4189 -98.5939 280° West 153 176 6,100 1,152 Climbing Minneapolis Center
Wed 01:31:19 PM 45.4286 -98.6539 283° West 156 180 7,400 1,248 Climbing Minneapolis Center
Wed 01:32:21 PM 45.4408 -98.7242 284° West 154 177 8,700 1,161 Climbing Minneapolis Center
Wed 01:33:23 PM 45.4508 -98.7836 284° West 154 177 9,800 1,065 Climbing Minneapolis Center
Wed 01:34:25 PM 45.4622 -98.8444 285° West 157 181 10,900 1,065 Climbing Minneapolis Center
Wed 01:35:27 PM 45.4722 -98.9061 283° West 159 183 12,000 1,016 Climbing Minneapolis Center
Wed 01:36:29 PM 45.4831 -98.9661 284° West 157 181 13,000 968 Climbing Minneapolis Center
Wed 01:37:31 PM 45.4928 -99.0275 283° West 158 182 14,000 1,113 Climbing Minneapolis Center
Wed 01:38:33 PM 45.5047 -99.1011 283° West 159 183 15,300 1,113 Climbing Minneapolis Center
Wed 01:39:35 PM 45.5158 -99.1617 285° West 158 182 16,300 1,016 Climbing Minneapolis Center
Wed 01:40:37 PM 45.5261 -99.2242 283° West 161 185 17,400 1,113 Climbing Minneapolis Center
Wed 01:41:39 PM 45.5367 -99.2903 283° West 167 192 18,600 1,104 Climbing Minneapolis Center
Wed 01:42:42 PM 45.5481 -99.3569 284° West 171 197 19,700 1,008 Climbing Minneapolis Center
Wed 01:43:44 PM 45.5589 -99.4228 283° West 172 198 20,700 1,016 Climbing Minneapolis Center
Wed 01:44:46 PM 45.5722 -99.5042 283° West 174 200 21,800 1,016 Climbing Minneapolis Center
Wed 01:45:48 PM 45.5839 -99.5722 284° West 177 204 22,800 919 Climbing Minneapolis Center
Wed 01:46:50 PM 45.5953 -99.6406 283° West 177 204 23,700 871 Climbing Minneapolis Center
Wed 01:47:52 PM 45.6061 -99.7106 282° West 180 207 24,600 823 Climbing Minneapolis Center
Wed 01:48:54 PM 45.6175 -99.7836 283° West 185 213 25,400 677 Climbing Minneapolis Center
Wed 01:49:56 PM 45.6328 -99.8736 284° West 192 221 26,000 290 Climbing Minneapolis Center
Wed 01:50:58 PM 45.6461 -99.9583 283° West 207 238 26,000  Level Minneapolis Center
Wed 01:52:00 PM 45.6617 -100.0492 284° West 229 264 26,000  Level Minneapolis Center
Wed 01:53:02 PM 45.6756 -100.1400 282° West 234 269 26,000  Level Minneapolis Center
Wed 01:54:05 PM 45.6892 -100.2294 282° West 232 267 26,000  Level Minneapolis Center
Wed 01:55:07 PM 45.7031 -100.3186 283° West 232 267 26,000  Level Minneapolis Center
Wed 01:56:09 PM 45.7186 -100.4239 282° West 227 261 26,000  Level Minneapolis Center
Wed 01:57:11 PM 45.7325 -100.5122 283° West 228 262 26,000  Level Minneapolis Center
Wed 01:58:13 PM 45.7461 -100.5997 283° West 227 261 26,000  Level Minneapolis Center
Wed 01:59:15 PM 45.7597 -100.6875 283° West 227 261 26,000  Level Minneapolis Center
Wed 02:00:17 PM 45.7733 -100.7778 282° West 230 265 26,000  Level Minneapolis Center
Wed 02:01:19 PM 45.7897 -100.8842 282° West 230 265 26,000  Level Minneapolis Center
Wed 02:02:21 PM 45.8036 -100.9731 283° West 230 265 26,000  Level Minneapolis Center
Wed 02:03:23 PM 45.8158 -101.0608 281° West 227 261 26,000  Level Minneapolis Center
Wed 02:04:25 PM 45.8294 -101.1492 282° West 227 261 26,000  Level Minneapolis Center
Wed 02:05:28 PM 45.8419 -101.2372 282° West 226 260 26,000  Level Minneapolis Center
Wed 02:06:30 PM 45.8556 -101.3250 283° West 226 260 26,000  Level Minneapolis Center
Wed 02:07:32 PM 45.8697 -101.4303 281° West 225 259 26,000  Level Minneapolis Center
Wed 02:08:34 PM 45.8836 -101.5167 283° West 224 258 26,000  Level Minneapolis Center
Wed 02:09:36 PM 45.8961 -101.6056 281° West 226 260 26,000  Level Minneapolis Center
Wed 02:10:38 PM 45.9083 -101.6936 281° West 226 260 26,000  Level Minneapolis Center
Wed 02:11:40 PM 45.9211 -101.7822 282° West 227 261 26,000  Level Minneapolis Center
Wed 02:12:42 PM 45.9344 -101.8708 282° West 227 261 26,000  Level Minneapolis Center
Wed 02:13:44 PM 45.9492 -101.9772 281° West 227 261 26,000  Level Minneapolis Center
Wed 02:14:46 PM 45.9614 -102.0661 281° West 227 261 26,000  Level Minneapolis Center
Wed 02:15:48 PM 45.9742 -102.1539 282° West 226 260 26,000  Level Minneapolis Center
Wed 02:16:51 PM 45.9869 -102.2417 282° West 225 259 26,000  Level Minneapolis Center
Wed 02:17:53 PM 45.9981 -102.3300 280° West 226 260 26,000  Level Minneapolis Center
Wed 02:18:55 PM 46.0100 -102.4178 281° West 224 258 26,000  Level Minneapolis Center
Wed 02:19:57 PM 46.0250 -102.5192 282° West 220 253 26,000  Level Minneapolis Center
Wed 02:20:59 PM 46.0375 -102.6044 282° West 219 252 26,000  Level Minneapolis Center
Wed 02:22:01 PM 46.0478 -102.6906 280° West 219 252 26,000  Level Minneapolis Center
Wed 02:23:03 PM 46.0592 -102.7786 281° West 218 251 26,000  Level Minneapolis Center
Wed 02:24:05 PM 46.0711 -102.8647 281° West 219 252 26,000  Level Minneapolis Center
Wed 02:25:07 PM 46.0817 -102.9519 280° West 221 254 26,000  Level Minneapolis Center
Wed 02:26:09 PM 46.0947 -103.0375 282° West 220 253 26,000  Level Minneapolis Center
Wed 02:27:11 PM 46.1053 -103.1222 280° West 217 250 26,000  Level Minneapolis Center
Wed 02:28:04 PM 46.1142 -103.2072 279° West 219 252 26,000  Level Salt Lake Center
Wed 02:29:06 PM 46.1253 -103.2917 281° West 218 251 26,000  Level Salt Lake Center
Wed 02:30:08 PM 46.1358 -103.3761 280° West 217 250 26,000  Level Salt Lake Center
Wed 02:31:10 PM 46.1472 -103.4611 281° West 216 249 26,000  Level Salt Lake Center
Wed 02:32:12 PM 46.1575 -103.5483 280° West 217 250 26,000  Level Salt Lake Center
Wed 02:33:14 PM 46.1714 -103.6514 281° West 219 252 26,000  Level Salt Lake Center
Wed 02:34:16 PM 46.1819 -103.7372 280° West 218 251 26,000  Level Salt Lake Center
Wed 02:35:18 PM 46.1925 -103.8222 280° West 217 250 26,000  Level Salt Lake Center
Wed 02:36:20 PM 46.2025 -103.9083 280° West 217 250 26,000  Level Salt Lake Center
Wed 02:37:22 PM 46.2125 -103.9936 280° West 217 250 26,000  Level Salt Lake Center
Wed 02:38:23 PM 46.2236 -104.0792 281° West 217 250 26,000  Level Salt Lake Center
Wed 02:39:25 PM 46.2347 -104.1817 279° West 216 249 26,000  Level Salt Lake Center
Wed 02:40:27 PM 46.2456 -104.2672 280° West 216 249 26,000  Level Salt Lake Center
Wed 02:41:29 PM 46.2556 -104.3503 280° West 215 247 26,000  Level Salt Lake Center
Wed 02:42:31 PM 46.2653 -104.4331 280° West 213 245 26,000  Level Salt Lake Center
Wed 02:43:33 PM 46.2756 -104.5181 280° West 213 245 26,000  Level Salt Lake Center
Wed 02:44:35 PM 46.2847 -104.6022 279° West 213 245 26,000  Level Salt Lake Center
Wed 02:45:37 PM 46.2947 -104.6858 280° West 213 245 26,000  Level Salt Lake Center
Wed 02:46:39 PM 46.3056 -104.7864 279° West 212 244 26,000  Level Salt Lake Center
Wed 02:47:41 PM 46.3156 -104.8700 280° West 212 244 26,000 -488 Level Salt Lake Center
Wed 02:48:42 PM 46.3256 -104.9561 280° West 212 244 25,000 -1,366 Descending Salt Lake Center
Wed 02:49:44 PM 46.3356 -105.0461 279° West 218 251 23,200 -1,742 Descending Salt Lake Center
Wed 02:50:46 PM 46.3456 -105.1375 279° West 222 255 21,400 -1,742 Descending Salt Lake Center
Wed 02:51:48 PM 46.3553 -105.2269 279° West 225 259 19,600 -1,887 Descending Salt Lake Center
Wed 02:52:50 PM 46.3656 -105.3136 280° West 224 258 17,500 -2,081 Descending Salt Lake Center
Wed 02:53:52 PM 46.3764 -105.4169 279° West 221 254 15,300 -2,129 Descending Salt Lake Center
Wed 02:55:00 PM 46.3813 -105.5115 274° West  Level FlightAware Approximate
Wed 03:02:00 PM 46.4167 -105.8833 270° West  Level FlightAware Approximate
Wed 03:03:00 PM 46.4280 -105.8863 270° West  Level Estimated
Wed 03:04:00 PM 46.4280 -105.8863 270° West  Level Estimated
Wed 03:05:00 PM 46.4280 -105.8863 270° West  Level Estimated
Wed 03:06:00 PM 46.4280 -105.8863 270° West  Level Estimated
Wed 03:07:00 PM 46.4280 -105.8863 270° West  Level Estimated
Wed 03:08:00 PM 46.4280 -105.8863 270° West  Level Estimated
Wed 03:09:00 PM 46.4280 -105.8863 270° West  Level Estimated
Wed 03:10:00 PM 46.4280 -105.8863 270° West  Level Estimated
Wed 03:11:00 PM 46.4280 -105.8863 270° West  Level Estimated
Wed 03:12:00 PM 46.4280 -105.8863 270° West  Level Estimated
Wed 03:13:00 PM 46.4280 -105.8863 270° West  Level Estimated
Wed 03:14:00 PM 46.4280 -105.8863 270° West  Level Estimated
Wed 03:15:00 PM 46.4280 -105.8863 270° West  Level Estimated

Login

Don't have an account? Register now (free) for customized features, flight alerts, and more!